Middletown, Connecticut
Current Conditions -  °F | °C
As of 4:53 AM on Sunday 23 Nov 2014 (Local Time) from KMMK Reporting Station
Broken Clouds Broken Clouds  
Wind Chill: 33°   Ceiling: 11000
Heat Index: 39°   Visibility: 10mi
Dew Point: 22°   Wind: 8mph
Humidity: 50%   Direction: 190°S
Pressure: 30.15"   Gusts: NA
Location:  41.56°N, 72.65°W
Report Text: KMMK 230953Z AUTO 19007KT 10SM FEW080 BKN110 04/M06 A3015 RMK AO2 SLP210 T00391056 TSNO
Loading
Personal Weather Stations






























Interactive Weather Map New forecast layout! Learn more

10-Day Weather Forecast

Advertisements
Track Severe Weather on mobile